Time;durP1;ratioP1;P1;durP2;ratioP2;P2;SDS_P1;SDS_P2;PMS_P1;PMS_P2;Temp;Humidity;BMP_temperature;BMP_pressure;BME280_temperature;BME280_humidity;BME280_pressure;Samples;Min_cycle;Max_cycle;Signal;HPM_P1;HPM_P2
2021/11/06 00:01:07;;;;;;;6.70;3.85;;;8.70;99.90;;;;;;5033530;28;20207;-71
2021/11/06 00:03:35;;;;;;;5.60;2.13;;;8.70;99.90;;;;;;5034801;28;20220;-71
2021/11/06 00:06:02;;;;;;;3.25;2.00;;;8.70;99.90;;;;;;5034345;28;20211;-70
2021/11/06 00:08:31;;;;;;;5.43;2.60;;;8.60;99.90;;;;;;5036843;28;20221;-71
2021/11/06 00:10:59;;;;;;;3.13;2.28;;;8.60;99.90;;;;;;5041290;28;20221;-71
2021/11/06 00:13:26;;;;;;;4.18;3.03;;;8.70;99.90;;;;;;5039652;28;20307;-71
2021/11/06 00:15:53;;;;;;;7.55;1.80;;;8.60;99.90;;;;;;5036017;28;20654;-71
2021/11/06 00:18:20;;;;;;;3.47;1.88;;;8.60;99.90;;;;;;5035185;28;20215;-72
2021/11/06 00:20:48;;;;;;;6.93;2.45;;;8.60;99.90;;;;;;5034615;28;20204;-72
2021/11/06 00:23:15;;;;;;;5.15;2.10;;;8.60;99.90;;;;;;5031878;28;20717;-71
2021/11/06 00:25:44;;;;;;;7.18;2.13;;;8.60;99.90;;;;;;5034108;28;20203;-72
2021/11/06 00:28:11;;;;;;;8.32;2.10;;;8.60;99.90;;;;;;5033250;28;20254;-72
2021/11/06 00:30:38;;;;;;;7.80;2.22;;;8.60;99.90;;;;;;5030942;28;20196;-72
2021/11/06 00:33:06;;;;;;;10.35;3.05;;;8.60;99.90;;;;;;5033844;28;20235;-72
2021/11/06 00:35:33;;;;;;;8.02;3.35;;;8.60;99.90;;;;;;5037320;28;20223;-72
2021/11/06 00:38:01;;;;;;;5.32;2.53;;;8.60;99.90;;;;;;5029519;28;20208;-71
2021/11/06 00:40:28;;;;;;;4.82;2.33;;;8.50;99.90;;;;;;5027531;28;20605;-71
2021/11/06 00:42:57;;;;;;;2.33;2.03;;;8.50;99.90;;;;;;5031089;28;20714;-72
2021/11/06 00:45:24;;;;;;;7.20;2.97;;;8.50;99.90;;;;;;5024081;28;20193;-72
2021/11/06 00:47:52;;;;;;;4.15;2.63;;;8.50;99.90;;;;;;5030625;28;20283;-72
2021/11/06 00:50:19;;;;;;;5.25;2.38;;;8.50;99.90;;;;;;5029412;28;20215;-71
2021/11/06 00:52:47;;;;;;;3.65;1.85;;;8.50;99.90;;;;;;5034355;28;20658;-70
2021/11/06 00:55:16;;;;;;;3.88;2.22;;;8.50;99.90;;;;;;5029521;28;20286;-70
2021/11/06 00:57:44;;;;;;;2.95;2.08;;;8.50;99.90;;;;;;5032575;28;20254;-71
2021/11/06 01:00:14;;;;;;;4.50;1.90;;;8.50;99.90;;;;;;5032075;28;20215;-71
2021/11/06 01:02:42;;;;;;;7.47;2.85;;;8.50;99.90;;;;;;5031932;28;20270;-71
2021/11/06 01:05:10;;;;;;;7.30;2.80;;;8.50;99.90;;;;;;5041761;28;20556;-70
2021/11/06 01:07:41;;;;;;;6.50;2.75;;;8.50;99.90;;;;;;5031408;28;20212;-70
2021/11/06 01:10:11;;;;;;;5.65;4.15;;;8.50;99.90;;;;;;5033935;28;20690;-71
2021/11/06 01:12:38;;;;;;;4.60;2.20;;;8.50;99.90;;;;;;5031852;28;20598;-71
2021/11/06 01:15:07;;;;;;;5.05;2.50;;;8.50;99.90;;;;;;5035013;28;20224;-70
2021/11/06 01:17:42;;;;;;;10.82;2.70;;;8.50;99.90;;;;;;5035077;28;20200;-70
2021/11/06 01:20:10;;;;;;;4.53;1.83;;;8.50;99.90;;;;;;5042639;28;20203;-71
2021/11/06 01:22:47;;;;;;;9.85;2.60;;;8.50;99.90;;;;;;5037577;28;20224;-71
2021/11/06 01:25:16;;;;;;;4.60;1.98;;;8.50;99.90;;;;;;5022801;28;20676;-71
2021/11/06 01:27:46;;;;;;;3.55;2.28;;;8.50;99.90;;;;;;5033773;28;20566;-71
2021/11/06 01:30:14;;;;;;;8.55;2.45;;;8.50;99.90;;;;;;5030989;28;20206;-71
2021/11/06 01:33:06;;;;;;;11.07;2.15;;;8.50;99.90;;;;;;5039867;28;20268;-71
2021/11/06 01:35:34;;;;;;;7.15;3.35;;;8.50;99.90;;;;;;5033959;28;20262;-71
2021/11/06 01:38:02;;;;;;;8.32;2.58;;;8.50;99.90;;;;;;5034260;28;20212;-70
2021/11/06 01:40:29;;;;;;;7.53;2.20;;;8.50;99.90;;;;;;5033044;28;20655;-71
2021/11/06 01:42:57;;;;;;;6.97;3.30;;;8.50;99.90;;;;;;5033529;28;20353;-71
2021/11/06 01:45:25;;;;;;;4.82;2.60;;;8.50;99.90;;;;;;5025550;28;20208;-71
2021/11/06 01:47:53;;;;;;;3.88;2.80;;;8.50;99.90;;;;;;5031946;28;20211;-72
2021/11/06 01:50:22;;;;;;;6.25;3.65;;;8.50;99.90;;;;;;5035158;28;20197;-71
2021/11/06 01:52:51;;;;;;;4.05;2.15;;;8.50;99.90;;;;;;5030988;28;20331;-72
2021/11/06 01:55:19;;;;;;;3.88;2.85;;;8.50;99.90;;;;;;5031501;28;21221;-71
2021/11/06 01:57:47;;;;;;;7.47;2.88;;;8.40;99.90;;;;;;5030888;28;20200;-71
2021/11/06 02:00:18;;;;;;;3.60;2.60;;;8.50;99.90;;;;;;5030110;28;20199;-71
2021/11/06 02:02:45;;;;;;;7.18;2.83;;;8.40;99.90;;;;;;5032371;28;20615;-71
2021/11/06 02:05:14;;;;;;;7.03;2.55;;;8.40;99.90;;;;;;5032913;28;20200;-71
2021/11/06 02:07:44;;;;;;;5.95;4.30;;;8.40;99.90;;;;;;5032488;28;20287;-71
2021/11/06 02:10:13;;;;;;;7.18;2.75;;;8.50;99.90;;;;;;5032479;28;20216;-71
2021/11/06 02:12:43;;;;;;;4.97;3.15;;;8.50;99.90;;;;;;5032021;28;20231;-71
2021/11/06 02:15:14;;;;;;;8.20;3.00;;;8.50;99.90;;;;;;5032198;28;20228;-71
2021/11/06 02:17:42;;;;;;;5.45;3.35;;;8.50;99.90;;;;;;5032085;28;20610;-71
2021/11/06 02:20:11;;;;;;;9.07;3.10;;;8.60;99.90;;;;;;5028463;28;20196;-71
2021/11/06 02:22:40;;;;;;;7.43;3.22;;;8.60;99.90;;;;;;5032547;28;20220;-71
2021/11/06 02:25:08;;;;;;;7.00;2.92;;;8.60;99.90;;;;;;5036290;28;20200;-71
2021/11/06 02:27:36;;;;;;;3.42;2.55;;;8.70;99.90;;;;;;5032507;28;20669;-70
2021/11/06 02:30:05;;;;;;;13.07;4.28;;;8.70;99.90;;;;;;5031548;28;20214;-71
2021/11/06 02:32:32;;;;;;;7.82;3.20;;;8.80;99.90;;;;;;5022306;28;20243;-71
2021/11/06 02:34:59;;;;;;;8.60;3.13;;;8.80;99.90;;;;;;5029564;28;20220;-70
2021/11/06 02:37:26;;;;;;;10.63;3.20;;;8.80;99.90;;;;;;5035530;28;20623;-70
2021/11/06 02:39:55;;;;;;;5.70;3.10;;;8.70;99.90;;;;;;5028338;28;20749;-70
2021/11/06 02:42:23;;;;;;;7.60;4.03;;;8.80;99.90;;;;;;5028120;28;20606;-70
2021/11/06 02:44:50;;;;;;;4.10;3.50;;;8.70;99.90;;;;;;5037017;28;20199;-70
2021/11/06 02:47:17;;;;;;;4.55;3.55;;;8.70;99.90;;;;;;5028018;28;20200;-70
2021/11/06 02:49:45;;;;;;;3.70;2.92;;;8.70;99.90;;;;;;5035891;28;20266;-70
2021/11/06 02:52:13;;;;;;;6.80;3.70;;;8.80;99.90;;;;;;5032262;28;20232;-71
2021/11/06 02:54:40;;;;;;;5.22;2.85;;;8.80;99.90;;;;;;5032481;28;20303;-71
2021/11/06 02:57:10;;;;;;;5.75;3.40;;;8.80;99.90;;;;;;5032896;28;20239;-70
2021/11/06 02:59:38;;;;;;;8.00;3.33;;;8.80;99.90;;;;;;5021941;28;20201;-71
2021/11/06 03:02:05;;;;;;;6.95;3.65;;;8.80;99.90;;;;;;5030077;28;20242;-71
2021/11/06 03:04:37;;;;;;;4.15;3.60;;;8.90;99.90;;;;;;5028617;28;20270;-72
2021/11/06 03:07:04;;;;;;;4.95;2.95;;;9.00;99.90;;;;;;5032235;28;20262;-72
2021/11/06 03:09:32;;;;;;;4.13;2.67;;;9.00;99.90;;;;;;5039360;28;20236;-72
2021/11/06 03:12:00;;;;;;;9.60;3.35;;;9.00;99.90;;;;;;5038102;28;20199;-69
2021/11/06 03:14:28;;;;;;;4.70;2.75;;;9.00;99.90;;;;;;5032189;28;20204;-70
2021/11/06 03:16:56;;;;;;;5.20;2.95;;;9.00;99.90;;;;;;5031449;28;20200;-70
2021/11/06 03:19:23;;;;;;;6.20;3.10;;;9.00;99.90;;;;;;5032073;28;20556;-70
2021/11/06 03:21:50;;;;;;;3.20;2.95;;;9.00;99.90;;;;;;5034577;28;20207;-70
2021/11/06 03:24:18;;;;;;;6.70;2.95;;;9.10;99.90;;;;;;5023788;28;20199;-71
2021/11/06 03:26:45;;;;;;;10.38;3.75;;;9.10;99.90;;;;;;5033770;28;20593;-71
2021/11/06 03:29:16;;;;;;;6.50;3.20;;;9.10;99.90;;;;;;5033742;28;20462;-71
2021/11/06 03:31:45;;;;;;;5.65;3.20;;;9.10;99.90;;;;;;5031026;28;20200;-71
2021/11/06 03:34:12;;;;;;;6.75;3.30;;;9.10;99.90;;;;;;5032514;28;20216;-70
2021/11/06 03:36:39;;;;;;;4.60;3.10;;;9.10;99.90;;;;;;5033070;28;20650;-70
2021/11/06 03:39:06;;;;;;;3.65;3.13;;;9.10;99.90;;;;;;5034059;28;20667;-70
2021/11/06 03:41:34;;;;;;;6.88;4.03;;;9.10;99.90;;;;;;5034040;28;20545;-71
2021/11/06 03:44:02;;;;;;;6.20;4.13;;;9.20;99.90;;;;;;5035694;28;20694;-71
2021/11/06 03:46:29;;;;;;;9.18;3.78;;;9.20;99.90;;;;;;5028611;28;20311;-70
2021/11/06 03:48:58;;;;;;;6.57;3.55;;;9.20;99.90;;;;;;5034665;28;20200;-71
2021/11/06 03:51:25;;;;;;;6.63;4.75;;;9.20;99.90;;;;;;5031725;28;20200;-70
2021/11/06 03:53:52;;;;;;;9.57;4.32;;;9.20;99.90;;;;;;5034471;28;20236;-71
2021/11/06 03:56:20;;;;;;;5.07;3.55;;;9.20;99.90;;;;;;5038600;28;20200;-70
2021/11/06 03:58:48;;;;;;;7.43;4.07;;;9.20;99.90;;;;;;5029152;28;20247;-70
2021/11/06 04:01:16;;;;;;;14.15;4.95;;;9.20;99.90;;;;;;5029087;28;20609;-71
2021/11/06 04:03:44;;;;;;;11.65;4.63;;;9.30;99.90;;;;;;5032833;28;20228;-71
2021/11/06 04:06:14;;;;;;;10.50;5.28;;;9.30;99.90;;;;;;5029423;28;20671;-71
2021/11/06 04:08:44;;;;;;;3.97;3.60;;;9.20;99.90;;;;;;5028069;28;20200;-71
2021/11/06 04:11:11;;;;;;;12.52;5.88;;;9.20;99.90;;;;;;5030766;28;20280;-71
2021/11/06 04:13:39;;;;;;;6.13;3.70;;;9.30;99.90;;;;;;5030772;28;20315;-71
2021/11/06 04:16:06;;;;;;;6.03;4.18;;;9.30;99.90;;;;;;5030925;28;20197;-71
2021/11/06 04:18:33;;;;;;;7.53;5.15;;;9.20;99.90;;;;;;5038374;28;20211;-71
2021/11/06 04:21:01;;;;;;;7.68;5.25;;;9.20;99.90;;;;;;5039414;28;20236;-72
2021/11/06 04:23:30;;;;;;;7.80;4.93;;;9.30;99.90;;;;;;5034579;28;20224;-72
2021/11/06 04:25:58;;;;;;;10.88;4.68;;;9.30;99.90;;;;;;5033857;28;20652;-71
2021/11/06 04:28:25;;;;;;;9.32;5.88;;;9.30;99.90;;;;;;5034651;28;20568;-71
2021/11/06 04:30:52;;;;;;;6.70;5.28;;;9.30;99.90;;;;;;5036053;28;20211;-71
2021/11/06 04:33:20;;;;;;;7.07;4.85;;;9.30;99.90;;;;;;5031381;28;20224;-71
2021/11/06 04:35:47;;;;;;;6.80;5.30;;;9.30;99.90;;;;;;5032217;28;20659;-71
2021/11/06 04:38:14;;;;;;;12.77;5.70;;;9.30;99.90;;;;;;5034546;28;20291;-71
2021/11/06 04:40:43;;;;;;;20.20;5.97;;;9.30;99.90;;;;;;5034894;28;20200;-71
2021/11/06 04:43:10;;;;;;;8.73;5.53;;;9.30;99.90;;;;;;5037698;28;20236;-71
2021/11/06 04:45:38;;;;;;;6.70;6.00;;;9.20;99.90;;;;;;5033485;28;20196;-70
2021/11/06 04:48:06;;;;;;;11.98;5.78;;;9.30;99.90;;;;;;5030216;28;20205;-71
2021/11/06 04:50:34;;;;;;;12.75;5.70;;;9.20;99.90;;;;;;5033488;28;20204;-71
2021/11/06 04:53:01;;;;;;;10.32;6.82;;;9.20;99.90;;;;;;5032810;28;20225;-70
2021/11/06 04:55:28;;;;;;;11.27;6.05;;;9.20;99.90;;;;;;5031551;28;20559;-71
2021/11/06 04:57:57;;;;;;;9.10;6.38;;;9.20;99.90;;;;;;5028337;28;20211;-71
2021/11/06 05:00:24;;;;;;;8.27;6.38;;;9.20;99.90;;;;;;5029104;28;20201;-71
2021/11/06 05:02:51;;;;;;;9.15;6.22;;;9.20;99.90;;;;;;5029713;28;20224;-71
2021/11/06 05:05:18;;;;;;;11.95;6.90;;;9.20;99.90;;;;;;5024235;28;20235;-71
2021/11/06 05:07:46;;;;;;;8.38;6.10;;;9.20;99.90;;;;;;5027908;28;20674;-71
2021/11/06 05:10:13;;;;;;;12.32;6.80;;;9.10;99.90;;;;;;5026972;28;20205;-71
2021/11/06 05:12:40;;;;;;;9.45;6.95;;;9.10;99.90;;;;;;5031424;28;20695;-71
2021/11/06 05:15:10;;;;;;;11.90;7.68;;;9.10;99.90;;;;;;5027095;28;20246;-71
2021/11/06 05:17:38;;;;;;;12.45;7.60;;;9.10;99.90;;;;;;5032181;28;20200;-71
2021/11/06 05:20:07;;;;;;;8.18;6.85;;;9.00;99.90;;;;;;5035489;28;20204;-70
2021/11/06 05:22:34;;;;;;;12.57;7.60;;;8.90;99.90;;;;;;5034745;28;20255;-70
2021/11/06 05:25:04;;;;;;;12.50;7.13;;;9.00;99.90;;;;;;5033123;28;20208;-71
2021/11/06 05:27:32;;;;;;;12.13;7.93;;;9.00;99.90;;;;;;5034296;28;20204;-70
2021/11/06 05:30:00;;;;;;;13.32;9.70;;;9.00;99.90;;;;;;5033912;28;20204;-71
2021/11/06 05:32:28;;;;;;;8.77;7.40;;;9.00;99.90;;;;;;5040666;28;20227;-72
2021/11/06 05:34:55;;;;;;;9.38;8.38;;;9.00;99.90;;;;;;5032976;28;20216;-71
2021/11/06 05:37:24;;;;;;;11.52;9.35;;;9.00;99.90;;;;;;5033906;28;20594;-71
2021/11/06 05:39:52;;;;;;;13.95;10.68;;;9.00;99.90;;;;;;5033127;28;20246;-71
2021/11/06 05:42:21;;;;;;;20.13;11.02;;;9.00;99.90;;;;;;5033925;28;20238;-71
2021/11/06 05:44:48;;;;;;;16.30;12.00;;;9.00;99.90;;;;;;5035777;28;20196;-71
2021/11/06 05:47:18;;;;;;;13.63;11.25;;;9.00;99.90;;;;;;5027442;28;20203;-71
2021/11/06 05:49:46;;;;;;;14.68;10.15;;;9.00;99.90;;;;;;5029278;28;20667;-71
2021/11/06 05:52:14;;;;;;;14.90;11.65;;;9.00;99.90;;;;;;5034617;28;20308;-71
2021/11/06 05:54:41;;;;;;;17.02;12.70;;;9.00;99.90;;;;;;5026108;28;20667;-71
2021/11/06 05:57:08;;;;;;;15.68;12.75;;;9.00;99.90;;;;;;5030443;28;21715;-71
2021/11/06 05:59:36;;;;;;;19.08;14.18;;;9.00;99.90;;;;;;5032313;28;20207;-71
2021/11/06 06:02:09;;;;;;;17.08;12.98;;;9.00;99.90;;;;;;5030883;28;20729;-71
2021/11/06 06:04:36;;;;;;;17.23;13.70;;;9.00;99.90;;;;;;5028832;28;20201;-72
2021/11/06 06:07:09;;;;;;;17.75;14.00;;;9.00;99.90;;;;;;5040787;28;20188;-71
2021/11/06 06:09:36;;;;;;;25.30;15.80;;;9.00;99.90;;;;;;5034584;28;20204;-72
2021/11/06 06:12:04;;;;;;;23.40;15.65;;;9.00;99.90;;;;;;5033627;28;20708;-72
2021/11/06 06:14:31;;;;;;;22.10;16.50;;;9.00;99.90;;;;;;5028022;28;20216;-72
2021/11/06 06:16:59;;;;;;;24.08;17.90;;;9.00;99.90;;;;;;5033610;28;20295;-72
2021/11/06 06:19:26;;;;;;;21.27;16.48;;;9.00;99.90;;;;;;5033923;28;20204;-70
2021/11/06 06:21:54;;;;;;;21.50;17.55;;;9.00;99.90;;;;;;5040369;28;20322;-71
2021/11/06 06:24:22;;;;;;;20.55;16.95;;;9.00;99.90;;;;;;5036323;28;20207;-71
2021/11/06 06:27:11;;;;;;;32.70;17.75;;;9.00;99.90;;;;;;5033761;28;20196;-71
2021/11/06 06:29:38;;;;;;;21.63;16.75;;;9.00;99.90;;;;;;5030351;28;20251;-70
2021/11/06 06:32:18;;;;;;;27.77;18.05;;;9.00;99.90;;;;;;5033294;28;20259;-71
2021/11/06 06:34:45;;;;;;;24.88;19.48;;;9.00;99.90;;;;;;5034032;28;20276;-71
2021/11/06 06:37:12;;;;;;;27.30;19.17;;;9.00;99.90;;;;;;5033143;28;20204;-71
2021/11/06 06:39:41;;;;;;;24.67;18.77;;;9.00;99.90;;;;;;5034187;28;20283;-71
2021/11/06 06:42:08;;;;;;;35.17;22.55;;;9.00;99.90;;;;;;5036571;28;20231;-71
2021/11/06 06:44:38;;;;;;;25.15;19.55;;;9.00;99.90;;;;;;5038115;28;20196;-71
2021/11/06 06:47:06;;;;;;;25.20;20.63;;;9.00;99.90;;;;;;5042218;28;20208;-71
2021/11/06 06:49:35;;;;;;;23.60;19.80;;;9.00;99.90;;;;;;5036892;28;20204;-70
2021/11/06 06:52:09;;;;;;;26.42;21.48;;;9.10;99.90;;;;;;5043501;28;20260;-71
2021/11/06 06:54:36;;;;;;;22.45;19.70;;;9.10;99.90;;;;;;5046555;28;20200;-70
2021/11/06 06:57:06;;;;;;;28.27;20.27;;;9.10;99.90;;;;;;5046873;28;20202;-71
2021/11/06 06:59:34;;;;;;;24.35;21.05;;;9.10;99.90;;;;;;5052187;28;20204;-70
2021/11/06 07:02:01;;;;;;;25.52;21.83;;;9.10;99.90;;;;;;5044089;28;20226;-71
2021/11/06 07:04:28;;;;;;;30.80;20.77;;;9.10;99.90;;;;;;5042046;28;20649;-70
2021/11/06 07:06:57;;;;;;;28.92;22.25;;;9.10;99.90;;;;;;5041696;28;20214;-70
2021/11/06 07:09:25;;;;;;;27.90;22.65;;;9.10;99.90;;;;;;5033787;28;20769;-71
2021/11/06 07:11:53;;;;;;;31.95;20.42;;;9.20;99.90;;;;;;5033508;28;20200;-72
2021/11/06 07:14:22;;;;;;;28.00;21.40;;;9.20;99.90;;;;;;5032421;28;20196;-72
2021/11/06 07:16:50;;;;;;;30.58;22.05;;;9.20;99.90;;;;;;5038368;28;20717;-71
2021/11/06 07:19:17;;;;;;;30.23;23.38;;;9.20;99.90;;;;;;5031432;28;20537;-71
2021/11/06 07:21:44;;;;;;;26.52;21.48;;;9.30;99.90;;;;;;5035783;28;20192;-71
2021/11/06 07:24:12;;;;;;;25.23;21.05;;;9.30;99.90;;;;;;5032308;28;20208;-70
2021/11/06 07:26:39;;;;;;;28.13;22.30;;;9.30;99.90;;;;;;5031573;28;20216;-70
2021/11/06 07:29:06;;;;;;;27.85;22.38;;;9.30;99.90;;;;;;5039481;28;20211;-70
2021/11/06 07:31:35;;;;;;;24.23;19.63;;;9.40;99.90;;;;;;5043330;28;20200;-71
2021/11/06 07:34:02;;;;;;;26.73;22.10;;;9.40;99.90;;;;;;5032535;28;20273;-71
2021/11/06 07:36:29;;;;;;;29.35;22.60;;;9.40;99.90;;;;;;5038050;28;20219;-72
2021/11/06 07:38:57;;;;;;;24.48;21.05;;;9.40;99.90;;;;;;5031861;28;20209;-71
2021/11/06 07:41:25;;;;;;;26.17;22.15;;;9.40;99.90;;;;;;5031854;28;20663;-71
2021/11/06 07:43:53;;;;;;;29.73;23.35;;;9.30;99.90;;;;;;5028904;28;20753;-72
2021/11/06 07:46:21;;;;;;;26.95;21.67;;;9.30;99.90;;;;;;5028068;28;20519;-72
2021/11/06 07:48:50;;;;;;;24.60;21.88;;;9.30;99.90;;;;;;5027588;28;20246;-72
2021/11/06 07:51:18;;;;;;;29.92;22.77;;;9.40;99.90;;;;;;5023317;28;20659;-72
2021/11/06 07:53:46;;;;;;;27.65;23.20;;;9.40;99.90;;;;;;5028222;28;20224;-71
2021/11/06 07:56:14;;;;;;;26.95;22.50;;;9.40;99.90;;;;;;5021838;28;20231;-71
2021/11/06 07:58:41;;;;;;;25.35;22.15;;;9.50;99.90;;;;;;5027087;28;20196;-71
2021/11/06 08:01:09;;;;;;;27.63;24.73;;;9.50;99.90;;;;;;5026561;28;20208;-72
2021/11/06 08:03:36;;;;;;;30.85;22.75;;;9.50;99.90;;;;;;5026041;28;20224;-73
2021/11/06 08:06:05;;;;;;;29.15;23.75;;;9.50;99.90;;;;;;5028207;28;20201;-73
2021/11/06 08:08:33;;;;;;;31.38;24.23;;;9.50;99.90;;;;;;5031941;28;20725;-73
2021/11/06 08:11:02;;;;;;;33.63;25.67;;;9.50;99.90;;;;;;5035527;28;20200;-75
2021/11/06 08:13:31;;;;;;;31.98;22.70;;;9.60;99.90;;;;;;5034351;28;20591;-71
2021/11/06 08:15:58;;;;;;;32.72;24.52;;;9.60;99.90;;;;;;5030981;28;20231;-72
2021/11/06 08:18:26;;;;;;;38.10;25.67;;;9.60;99.90;;;;;;5031499;28;20210;-71
2021/11/06 08:20:54;;;;;;;31.13;25.27;;;9.60;99.90;;;;;;5032369;28;20287;-71
2021/11/06 08:23:23;;;;;;;30.35;24.35;;;9.60;99.90;;;;;;5032642;28;20220;-71
2021/11/06 08:25:52;;;;;;;34.10;25.40;;;9.60;99.90;;;;;;5031666;28;20200;-70
2021/11/06 08:28:19;;;;;;;39.35;27.73;;;9.70;99.90;;;;;;5027454;28;20205;-69
2021/11/06 08:30:47;;;;;;;35.30;26.00;;;9.70;99.90;;;;;;5029929;28;20192;-71
2021/11/06 08:33:14;;;;;;;32.92;26.88;;;9.70;99.90;;;;;;5031777;28;20715;-72
2021/11/06 08:35:41;;;;;;;32.88;26.25;;;9.70;99.90;;;;;;5030405;28;20231;-72
2021/11/06 08:38:10;;;;;;;35.72;27.48;;;9.80;99.90;;;;;;5030985;28;20205;-70
2021/11/06 08:40:39;;;;;;;34.17;26.88;;;9.70;99.90;;;;;;5044868;28;20262;-74
2021/11/06 08:43:06;;;;;;;30.92;26.13;;;9.80;99.90;;;;;;5036041;28;20264;-72
2021/11/06 08:45:34;;;;;;;36.80;26.65;;;9.80;99.90;;;;;;5036200;28;20202;-71
2021/11/06 08:48:01;;;;;;;39.85;27.92;;;9.70;99.90;;;;;;5036135;28;20219;-74
2021/11/06 08:50:29;;;;;;;37.40;26.95;;;9.80;99.90;;;;;;5032541;28;20196;-71
2021/11/06 08:52:58;;;;;;;33.22;25.00;;;9.80;99.90;;;;;;5033271;28;20225;-70
2021/11/06 08:55:26;;;;;;;31.95;24.88;;;9.90;99.90;;;;;;5025566;28;20256;-72
2021/11/06 08:57:55;;;;;;;36.97;24.42;;;9.90;99.90;;;;;;5031032;28;20203;-71
2021/11/06 09:00:31;;;;;;;37.85;28.10;;;10.10;99.90;;;;;;5031754;28;20200;-72
2021/11/06 09:02:59;;;;;;;35.33;27.35;;;10.00;99.90;;;;;;5025717;28;20647;-72
2021/11/06 09:05:27;;;;;;;34.55;28.33;;;10.00;99.90;;;;;;5026579;28;20263;-70
2021/11/06 09:07:56;;;;;;;39.58;28.77;;;10.00;99.90;;;;;;5033481;28;20308;-70
2021/11/06 09:10:25;;;;;;;35.03;29.52;;;9.90;99.90;;;;;;5033925;28;20295;-74
2021/11/06 09:12:54;;;;;;;36.95;24.35;;;10.00;99.90;;;;;;5031757;28;20220;-72
2021/11/06 09:15:21;;;;;;;35.05;25.73;;;10.10;99.90;;;;;;5032962;28;20208;-72
2021/11/06 09:17:50;;;;;;;45.10;24.60;;;10.10;99.90;;;;;;5035423;28;20251;-71
2021/11/06 09:20:18;;;;;;;37.35;27.15;;;10.00;99.90;;;;;;5026317;28;20211;-73
2021/11/06 09:22:46;;;;;;;36.83;26.75;;;10.20;99.90;;;;;;5047679;28;20717;-71
2021/11/06 09:25:14;;;;;;;34.42;27.58;;;10.20;99.90;;;;;;5035755;28;20203;-74
2021/11/06 09:27:42;;;;;;;40.63;28.90;;;10.30;99.90;;;;;;5039104;28;20204;-70
2021/11/06 09:30:12;;;;;;;31.85;26.17;;;10.30;99.90;;;;;;5032882;28;20209;-73
2021/11/06 09:32:41;;;;;;;38.70;26.30;;;10.30;99.90;;;;;;5025582;28;20737;-68
2021/11/06 09:35:09;;;;;;;41.95;26.55;;;10.30;99.90;;;;;;5022627;28;20563;-68
2021/11/06 09:37:38;;;;;;;34.22;24.92;;;10.40;99.90;;;;;;5025438;28;20217;-69
2021/11/06 09:40:08;;;;;;;32.58;25.88;;;10.40;99.90;;;;;;5028955;28;20631;-69
2021/11/06 09:42:36;;;;;;;38.28;28.55;;;10.30;99.90;;;;;;5024898;28;20391;-69
2021/11/06 09:45:06;;;;;;;37.38;25.67;;;10.30;99.90;;;;;;5030290;28;20208;-69
2021/11/06 09:47:36;;;;;;;37.22;30.10;;;10.40;99.90;;;;;;5032212;28;20201;-68
2021/11/06 09:50:05;;;;;;;36.50;26.65;;;10.30;99.90;;;;;;5034971;28;20283;-75
2021/11/06 09:52:33;;;;;;;35.15;29.60;;;10.40;99.90;;;;;;5034557;28;20220;-73
2021/11/06 09:55:00;;;;;;;37.97;24.80;;;10.30;99.90;;;;;;5032996;28;20201;-76
2021/11/06 09:57:28;;;;;;;33.45;26.77;;;10.30;99.90;;;;;;5030606;28;20247;-73
2021/11/06 09:59:56;;;;;;;29.80;26.60;;;10.20;99.90;;;;;;5032869;28;20263;-73
2021/11/06 10:02:26;;;;;;;28.77;23.23;;;10.30;99.90;;;;;;5035058;28;20251;-75
2021/11/06 10:04:55;;;;;;;36.03;25.92;;;10.40;99.90;;;;;;5036031;28;20302;-73
2021/11/06 10:07:26;;;;;;;36.17;27.25;;;10.20;99.90;;;;;;5034914;28;20213;-73
2021/11/06 10:10:01;;;;;;;36.65;25.33;;;10.40;99.90;;;;;;5034849;28;20195;-73
2021/11/06 10:12:45;;;;;;;34.72;27.08;;;10.50;99.90;;;;;;5032801;28;20305;-72
2021/11/06 10:15:16;;;;;;;32.20;26.25;;;10.60;99.90;;;;;;5036596;28;20205;-74
2021/11/06 10:17:57;;;;;;;33.92;24.30;;;10.60;99.90;;;;;;5042742;28;20240;-74
2021/11/06 10:20:32;;;;;;;43.22;28.42;;;10.50;99.90;;;;;;5035384;28;20208;-75
2021/11/06 10:23:02;;;;;;;33.75;25.92;;;10.40;99.90;;;;;;5043860;28;20227;-75
2021/11/06 10:25:43;;;;;;;36.58;27.23;;;10.40;99.90;;;;;;5042859;28;20228;-71
2021/11/06 10:28:13;;;;;;;38.45;27.95;;;10.40;99.90;;;;;;5037390;28;20212;-73
2021/11/06 10:30:50;;;;;;;37.20;28.05;;;10.40;99.90;;;;;;5033044;28;20549;-73
2021/11/06 10:33:19;;;;;;;40.70;26.10;;;10.40;99.90;;;;;;5032605;28;20249;-73
2021/11/06 10:35:58;;;;;;;37.50;28.85;;;10.30;99.90;;;;;;5033063;28;20209;-72
2021/11/06 10:38:28;;;;;;;32.22;26.75;;;10.20;99.90;;;;;;5032900;28;20696;-73
2021/11/06 10:40:59;;;;;;;28.38;24.30;;;10.40;99.90;;;;;;5033059;28;20204;-75
2021/11/06 10:43:37;;;;;;;38.03;27.15;;;10.60;99.90;;;;;;5033906;28;20243;-73
2021/11/06 10:46:10;;;;;;;35.35;26.48;;;10.70;99.90;;;;;;5027268;28;20232;-73
2021/11/06 10:48:38;;;;;;;38.90;24.50;;;10.60;99.90;;;;;;5028564;28;20276;-74
2021/11/06 10:51:08;;;;;;;35.53;27.80;;;10.50;99.90;;;;;;5031378;28;20203;-73
2021/11/06 10:53:42;;;;;;;36.22;28.42;;;10.50;99.90;;;;;;5026857;28;20730;-73
2021/11/06 10:56:28;;;;;;;34.72;27.15;;;10.50;99.90;;;;;;5025090;28;20211;-73
2021/11/06 10:58:58;;;;;;;32.22;27.60;;;10.30;99.90;;;;;;5030145;28;20198;-72
2021/11/06 11:01:29;;;;;;;36.67;27.77;;;10.30;99.90;;;;;;5031588;28;20205;-73
2021/11/06 11:04:02;;;;;;;41.75;28.17;;;10.30;99.90;;;;;;5027783;28;20259;-72
2021/11/06 11:06:42;;;;;;;36.17;28.58;;;10.30;99.90;;;;;;5023712;28;20615;-73
2021/11/06 11:09:13;;;;;;;36.78;26.23;;;10.30;99.90;;;;;;5023971;28;20200;-73
2021/11/06 11:11:40;;;;;;;35.38;26.58;;;10.30;99.90;;;;;;5024102;28;20193;-73
2021/11/06 11:14:10;;;;;;;37.90;25.15;;;10.40;99.90;;;;;;5023445;28;20204;-73
2021/11/06 11:16:40;;;;;;;32.85;25.98;;;10.50;99.90;;;;;;5030051;28;20224;-74
2021/11/06 11:19:10;;;;;;;36.65;28.48;;;10.50;99.90;;;;;;5030098;28;20209;-73
2021/11/06 11:21:44;;;;;;;36.15;25.88;;;10.40;99.90;;;;;;5029708;28;20198;-74
2021/11/06 11:24:15;;;;;;;36.63;25.05;;;10.50;99.90;;;;;;5028980;28;20215;-72
2021/11/06 11:26:44;;;;;;;34.92;25.83;;;10.50;99.90;;;;;;5026643;28;20284;-73
2021/11/06 11:29:14;;;;;;;35.28;26.73;;;10.50;99.90;;;;;;5030415;28;20212;-74
2021/11/06 11:31:43;;;;;;;27.33;24.42;;;10.60;99.90;;;;;;5028447;28;20206;-73
2021/11/06 11:34:11;;;;;;;33.90;24.88;;;10.50;99.90;;;;;;5031562;28;20222;-72
2021/11/06 11:36:43;;;;;;;37.47;27.10;;;10.50;99.90;;;;;;5030141;28;20209;-73
2021/11/06 11:39:13;;;;;;;27.73;23.23;;;10.40;99.90;;;;;;5031827;28;20201;-73
2021/11/06 11:42:15;;;;;;;27.75;24.60;;;10.60;99.90;;;;;;5028099;28;20301;-75
2021/11/06 11:45:10;;;;;;;31.10;24.65;;;10.60;99.90;;;;;;5027743;28;20502;-73
2021/11/06 11:47:42;;;;;;;36.28;24.15;;;10.50;99.90;;;;;;5031353;28;20301;-74
2021/11/06 11:50:15;;;;;;;28.83;22.35;;;10.50;99.90;;;;;;5022729;28;20206;-74
2021/11/06 11:52:44;;;;;;;38.13;24.58;;;10.50;99.90;;;;;;5027672;28;21216;-74
2021/11/06 11:55:17;;;;;;;27.30;24.17;;;10.50;99.90;;;;;;5029048;28;20206;-75
2021/11/06 11:57:53;;;;;;;36.30;23.45;;;10.60;99.90;;;;;;5029382;28;20222;-74
2021/11/06 12:00:42;;;;;;;29.83;23.25;;;10.50;99.90;;;;;;5032781;28;20228;-74
2021/11/06 12:03:11;;;;;;;32.83;24.85;;;10.60;99.90;;;;;;5032742;28;20225;-75
2021/11/06 12:05:41;;;;;;;32.10;21.77;;;10.50;99.90;;;;;;5029618;28;20201;-75
2021/11/06 12:08:35;;;;;;;28.00;21.73;;;10.50;99.90;;;;;;5036586;28;20211;-75
2021/11/06 12:11:18;;;;;;;32.60;24.90;;;10.40;99.90;;;;;;5035812;28;20291;-75
2021/11/06 12:13:50;;;;;;;34.67;24.10;;;10.40;99.90;;;;;;5031364;28;20224;-75
2021/11/06 12:16:22;;;;;;;30.70;22.88;;;10.40;99.90;;;;;;5030224;28;20295;-75
2021/11/06 12:18:57;;;;;;;29.20;22.17;;;10.40;99.90;;;;;;5034733;28;20201;-76
2021/11/06 12:21:33;;;;;;;28.67;21.05;;;10.40;99.90;;;;;;5041560;28;20223;-75
2021/11/06 12:24:25;;;;;;;31.52;23.50;;;10.50;99.90;;;;;;5038234;28;20223;-75
2021/11/06 12:26:55;;;;;;;29.50;20.05;;;10.50;99.90;;;;;;5036590;28;20215;-76
2021/11/06 12:29:26;;;;;;;23.33;20.00;;;10.60;99.90;;;;;;5035028;28;20539;-76
2021/11/06 12:31:55;;;;;;;31.50;23.60;;;10.70;99.90;;;;;;5039124;28;20547;-75
2021/11/06 12:34:41;;;;;;;24.70;19.63;;;10.70;99.90;;;;;;5041202;28;20197;-75
2021/11/06 12:37:09;;;;;;;24.52;20.08;;;10.90;99.90;;;;;;5035607;28;20299;-75
2021/11/06 12:39:49;;;;;;;26.33;20.15;;;11.00;99.90;;;;;;5046494;28;20196;-76
2021/11/06 12:42:19;;;;;;;25.15;17.00;;;11.10;99.90;;;;;;5040626;28;20225;-75
2021/11/06 12:44:51;;;;;;;21.45;17.42;;;11.00;99.90;;;;;;5042247;28;20199;-75
2021/11/06 12:47:20;;;;;;;23.88;18.38;;;11.00;99.90;;;;;;5034474;28;20255;-75
2021/11/06 12:49:48;;;;;;;25.08;17.83;;;11.00;99.90;;;;;;5032464;28;20193;-75
2021/11/06 12:52:16;;;;;;;26.02;18.13;;;11.00;99.90;;;;;;5026127;28;20719;-75